sensor_id;sensor_type;location;lat;lon;timestamp;P1;durP1;ratioP1;P2;durP2;ratioP2
11287;SDS011;5700;50.996;7.044;2023-07-20T00:00:56;6.63;;;1.75;;
11287;SDS011;5700;50.996;7.044;2023-07-20T00:03:58;3.25;;;1.67;;
11287;SDS011;5700;50.996;7.044;2023-07-20T00:06:59;5.10;;;1.50;;
11287;SDS011;5700;50.996;7.044;2023-07-20T00:10:02;5.82;;;1.83;;
11287;SDS011;5700;50.996;7.044;2023-07-20T00:13:04;3.65;;;1.45;;
11287;SDS011;5700;50.996;7.044;2023-07-20T00:16:06;4.25;;;1.90;;
11287;SDS011;5700;50.996;7.044;2023-07-20T00:19:07;4.25;;;1.73;;
11287;SDS011;5700;50.996;7.044;2023-07-20T00:22:10;3.10;;;1.83;;
11287;SDS011;5700;50.996;7.044;2023-07-20T00:25:14;3.47;;;1.80;;
11287;SDS011;5700;50.996;7.044;2023-07-20T00:28:15;5.05;;;1.67;;
11287;SDS011;5700;50.996;7.044;2023-07-20T00:31:17;4.28;;;1.92;;
11287;SDS011;5700;50.996;7.044;2023-07-20T00:34:18;3.00;;;1.90;;
11287;SDS011;5700;50.996;7.044;2023-07-20T00:37:20;4.60;;;2.17;;
11287;SDS011;5700;50.996;7.044;2023-07-20T00:40:22;3.22;;;1.60;;
11287;SDS011;5700;50.996;7.044;2023-07-20T00:43:24;5.47;;;2.40;;
11287;SDS011;5700;50.996;7.044;2023-07-20T00:46:25;3.40;;;1.50;;
11287;SDS011;5700;50.996;7.044;2023-07-20T00:49:26;4.93;;;1.80;;
11287;SDS011;5700;50.996;7.044;2023-07-20T00:52:28;2.08;;;1.55;;
11287;SDS011;5700;50.996;7.044;2023-07-20T00:55:31;6.47;;;2.25;;
11287;SDS011;5700;50.996;7.044;2023-07-20T00:58:32;6.10;;;2.05;;
11287;SDS011;5700;50.996;7.044;2023-07-20T01:01:34;5.10;;;1.70;;
11287;SDS011;5700;50.996;7.044;2023-07-20T01:04:35;4.85;;;2.08;;
11287;SDS011;5700;50.996;7.044;2023-07-20T01:07:38;3.05;;;1.55;;
11287;SDS011;5700;50.996;7.044;2023-07-20T01:10:46;5.13;;;1.70;;
11287;SDS011;5700;50.996;7.044;2023-07-20T01:13:52;5.00;;;1.65;;
11287;SDS011;5700;50.996;7.044;2023-07-20T01:16:54;7.85;;;1.77;;
11287;SDS011;5700;50.996;7.044;2023-07-20T01:19:55;6.80;;;1.80;;
11287;SDS011;5700;50.996;7.044;2023-07-20T01:23:01;3.35;;;1.60;;
11287;SDS011;5700;50.996;7.044;2023-07-20T01:26:25;4.55;;;1.55;;
11287;SDS011;5700;50.996;7.044;2023-07-20T01:29:42;3.53;;;1.65;;
11287;SDS011;5700;50.996;7.044;2023-07-20T01:32:54;3.63;;;1.75;;
11287;SDS011;5700;50.996;7.044;2023-07-20T01:35:57;3.33;;;1.58;;
11287;SDS011;5700;50.996;7.044;2023-07-20T01:39:00;4.10;;;1.70;;
11287;SDS011;5700;50.996;7.044;2023-07-20T01:42:04;2.60;;;1.38;;
11287;SDS011;5700;50.996;7.044;2023-07-20T01:45:06;4.55;;;1.65;;
11287;SDS011;5700;50.996;7.044;2023-07-20T01:48:10;4.18;;;1.67;;
11287;SDS011;5700;50.996;7.044;2023-07-20T01:51:11;3.10;;;1.67;;
11287;SDS011;5700;50.996;7.044;2023-07-20T01:54:13;6.45;;;1.70;;
11287;SDS011;5700;50.996;7.044;2023-07-20T01:57:14;3.22;;;1.80;;
11287;SDS011;5700;50.996;7.044;2023-07-20T02:00:16;4.10;;;1.83;;
11287;SDS011;5700;50.996;7.044;2023-07-20T02:03:20;2.05;;;1.52;;
11287;SDS011;5700;50.996;7.044;2023-07-20T02:06:23;3.60;;;1.83;;
11287;SDS011;5700;50.996;7.044;2023-07-20T02:09:25;4.68;;;1.92;;
11287;SDS011;5700;50.996;7.044;2023-07-20T02:12:26;3.05;;;1.75;;
11287;SDS011;5700;50.996;7.044;2023-07-20T02:15:28;3.92;;;1.80;;
11287;SDS011;5700;50.996;7.044;2023-07-20T02:18:30;5.40;;;1.60;;
11287;SDS011;5700;50.996;7.044;2023-07-20T02:21:33;3.03;;;1.75;;
11287;SDS011;5700;50.996;7.044;2023-07-20T02:24:34;5.13;;;2.13;;
11287;SDS011;5700;50.996;7.044;2023-07-20T02:27:36;3.15;;;1.40;;
11287;SDS011;5700;50.996;7.044;2023-07-20T02:30:38;2.78;;;1.55;;
11287;SDS011;5700;50.996;7.044;2023-07-20T02:33:41;2.92;;;1.40;;
11287;SDS011;5700;50.996;7.044;2023-07-20T02:36:42;2.83;;;1.70;;
11287;SDS011;5700;50.996;7.044;2023-07-20T02:39:46;3.97;;;1.45;;
11287;SDS011;5700;50.996;7.044;2023-07-20T02:42:47;4.05;;;1.58;;
11287;SDS011;5700;50.996;7.044;2023-07-20T02:45:49;3.83;;;1.70;;
11287;SDS011;5700;50.996;7.044;2023-07-20T02:48:52;5.07;;;1.92;;
11287;SDS011;5700;50.996;7.044;2023-07-20T02:51:54;3.55;;;1.70;;
11287;SDS011;5700;50.996;7.044;2023-07-20T02:54:55;5.22;;;2.08;;
11287;SDS011;5700;50.996;7.044;2023-07-20T02:57:57;4.20;;;1.67;;
11287;SDS011;5700;50.996;7.044;2023-07-20T03:00:58;4.10;;;2.13;;
11287;SDS011;5700;50.996;7.044;2023-07-20T03:04:01;4.50;;;1.88;;
11287;SDS011;5700;50.996;7.044;2023-07-20T03:07:02;7.57;;;2.53;;
11287;SDS011;5700;50.996;7.044;2023-07-20T03:10:05;3.65;;;1.85;;
11287;SDS011;5700;50.996;7.044;2023-07-20T03:13:09;7.18;;;2.08;;
11287;SDS011;5700;50.996;7.044;2023-07-20T03:16:11;6.38;;;2.28;;
11287;SDS011;5700;50.996;7.044;2023-07-20T03:19:16;2.95;;;1.90;;
11287;SDS011;5700;50.996;7.044;2023-07-20T03:22:18;4.57;;;2.15;;
11287;SDS011;5700;50.996;7.044;2023-07-20T03:25:19;5.65;;;1.90;;
11287;SDS011;5700;50.996;7.044;2023-07-20T03:28:21;3.42;;;1.90;;
11287;SDS011;5700;50.996;7.044;2023-07-20T03:31:22;4.95;;;2.10;;
11287;SDS011;5700;50.996;7.044;2023-07-20T03:34:25;5.63;;;2.60;;
11287;SDS011;5700;50.996;7.044;2023-07-20T03:37:26;6.00;;;2.13;;
11287;SDS011;5700;50.996;7.044;2023-07-20T03:40:28;4.05;;;1.95;;
11287;SDS011;5700;50.996;7.044;2023-07-20T03:43:29;6.03;;;2.50;;
11287;SDS011;5700;50.996;7.044;2023-07-20T03:46:31;4.28;;;1.85;;
11287;SDS011;5700;50.996;7.044;2023-07-20T03:49:35;6.25;;;2.10;;
11287;SDS011;5700;50.996;7.044;2023-07-20T03:52:36;6.40;;;2.20;;
11287;SDS011;5700;50.996;7.044;2023-07-20T03:55:38;4.10;;;2.00;;
11287;SDS011;5700;50.996;7.044;2023-07-20T03:58:40;6.75;;;2.35;;
11287;SDS011;5700;50.996;7.044;2023-07-20T04:01:42;3.65;;;1.80;;
11287;SDS011;5700;50.996;7.044;2023-07-20T04:04:44;5.15;;;1.80;;
11287;SDS011;5700;50.996;7.044;2023-07-20T04:07:46;3.97;;;1.67;;
11287;SDS011;5700;50.996;7.044;2023-07-20T04:10:47;5.90;;;2.38;;
11287;SDS011;5700;50.996;7.044;2023-07-20T04:13:48;6.05;;;2.20;;
11287;SDS011;5700;50.996;7.044;2023-07-20T04:16:50;7.07;;;2.20;;
11287;SDS011;5700;50.996;7.044;2023-07-20T04:19:53;4.85;;;2.00;;
11287;SDS011;5700;50.996;7.044;2023-07-20T04:22:54;5.57;;;2.22;;
11287;SDS011;5700;50.996;7.044;2023-07-20T04:25:56;3.60;;;1.88;;
11287;SDS011;5700;50.996;7.044;2023-07-20T04:28:57;4.82;;;1.88;;
11287;SDS011;5700;50.996;7.044;2023-07-20T04:31:59;3.55;;;2.00;;
11287;SDS011;5700;50.996;7.044;2023-07-20T04:35:05;6.35;;;2.13;;
11287;SDS011;5700;50.996;7.044;2023-07-20T04:38:08;7.07;;;2.65;;
11287;SDS011;5700;50.996;7.044;2023-07-20T04:41:10;5.13;;;2.58;;
11287;SDS011;5700;50.996;7.044;2023-07-20T04:44:12;5.65;;;2.63;;
11287;SDS011;5700;50.996;7.044;2023-07-20T04:47:14;9.68;;;2.67;;
11287;SDS011;5700;50.996;7.044;2023-07-20T04:50:17;3.75;;;2.00;;
11287;SDS011;5700;50.996;7.044;2023-07-20T04:53:19;5.57;;;2.13;;
11287;SDS011;5700;50.996;7.044;2023-07-20T04:56:20;7.53;;;2.30;;
11287;SDS011;5700;50.996;7.044;2023-07-20T04:59:23;8.10;;;2.72;;
11287;SDS011;5700;50.996;7.044;2023-07-20T05:02:24;7.95;;;1.95;;
11287;SDS011;5700;50.996;7.044;2023-07-20T05:05:27;6.68;;;2.10;;
11287;SDS011;5700;50.996;7.044;2023-07-20T05:08:28;8.25;;;2.17;;
11287;SDS011;5700;50.996;7.044;2023-07-20T05:11:30;6.13;;;2.80;;
11287;SDS011;5700;50.996;7.044;2023-07-20T05:14:31;5.47;;;2.63;;
11287;SDS011;5700;50.996;7.044;2023-07-20T05:17:33;6.63;;;3.00;;
11287;SDS011;5700;50.996;7.044;2023-07-20T05:20:35;6.00;;;2.67;;
11287;SDS011;5700;50.996;7.044;2023-07-20T05:23:37;8.18;;;2.72;;
11287;SDS011;5700;50.996;7.044;2023-07-20T05:26:38;5.55;;;2.90;;
11287;SDS011;5700;50.996;7.044;2023-07-20T05:29:43;6.32;;;2.42;;
11287;SDS011;5700;50.996;7.044;2023-07-20T05:32:45;7.32;;;2.80;;
11287;SDS011;5700;50.996;7.044;2023-07-20T05:35:52;11.60;;;3.10;;
11287;SDS011;5700;50.996;7.044;2023-07-20T05:38:53;7.68;;;3.15;;
11287;SDS011;5700;50.996;7.044;2023-07-20T05:41:55;5.53;;;2.88;;
11287;SDS011;5700;50.996;7.044;2023-07-20T05:44:56;8.20;;;3.30;;
11287;SDS011;5700;50.996;7.044;2023-07-20T05:47:57;8.88;;;3.72;;
11287;SDS011;5700;50.996;7.044;2023-07-20T05:51:00;8.57;;;3.97;;
11287;SDS011;5700;50.996;7.044;2023-07-20T05:54:01;9.15;;;4.25;;
11287;SDS011;5700;50.996;7.044;2023-07-20T05:57:03;11.25;;;4.18;;
11287;SDS011;5700;50.996;7.044;2023-07-20T06:00:06;8.93;;;4.10;;
11287;SDS011;5700;50.996;7.044;2023-07-20T06:03:08;10.48;;;4.72;;
11287;SDS011;5700;50.996;7.044;2023-07-20T06:06:11;10.80;;;4.80;;
11287;SDS011;5700;50.996;7.044;2023-07-20T06:09:13;8.98;;;5.30;;
11287;SDS011;5700;50.996;7.044;2023-07-20T06:12:14;10.50;;;5.05;;
11287;SDS011;5700;50.996;7.044;2023-07-20T06:15:24;13.55;;;5.43;;
11287;SDS011;5700;50.996;7.044;2023-07-20T06:18:27;9.88;;;5.03;;
11287;SDS011;5700;50.996;7.044;2023-07-20T06:21:30;11.10;;;4.70;;
11287;SDS011;5700;50.996;7.044;2023-07-20T06:24:31;8.65;;;4.30;;
11287;SDS011;5700;50.996;7.044;2023-07-20T06:27:32;9.25;;;4.72;;
11287;SDS011;5700;50.996;7.044;2023-07-20T06:30:34;10.57;;;4.50;;
11287;SDS011;5700;50.996;7.044;2023-07-20T06:33:35;6.50;;;4.13;;
11287;SDS011;5700;50.996;7.044;2023-07-20T06:36:38;10.32;;;5.10;;
11287;SDS011;5700;50.996;7.044;2023-07-20T06:39:39;12.20;;;5.53;;
11287;SDS011;5700;50.996;7.044;2023-07-20T06:42:41;9.65;;;4.75;;
11287;SDS011;5700;50.996;7.044;2023-07-20T06:45:42;8.00;;;5.13;;
11287;SDS011;5700;50.996;7.044;2023-07-20T06:48:44;9.05;;;4.85;;
11287;SDS011;5700;50.996;7.044;2023-07-20T06:51:47;12.85;;;6.07;;
11287;SDS011;5700;50.996;7.044;2023-07-20T06:54:48;11.13;;;4.80;;
11287;SDS011;5700;50.996;7.044;2023-07-20T06:57:50;8.65;;;5.07;;
11287;SDS011;5700;50.996;7.044;2023-07-20T07:00:51;8.27;;;5.25;;
11287;SDS011;5700;50.996;7.044;2023-07-20T07:03:53;9.13;;;5.10;;
11287;SDS011;5700;50.996;7.044;2023-07-20T07:06:56;11.60;;;6.18;;
11287;SDS011;5700;50.996;7.044;2023-07-20T07:09:57;8.52;;;5.53;;
11287;SDS011;5700;50.996;7.044;2023-07-20T07:12:59;11.13;;;5.22;;
11287;SDS011;5700;50.996;7.044;2023-07-20T07:16:01;10.90;;;5.88;;
11287;SDS011;5700;50.996;7.044;2023-07-20T07:19:03;9.38;;;5.68;;
11287;SDS011;5700;50.996;7.044;2023-07-20T07:22:06;8.30;;;4.78;;
11287;SDS011;5700;50.996;7.044;2023-07-20T07:25:08;8.43;;;5.00;;
11287;SDS011;5700;50.996;7.044;2023-07-20T07:28:10;9.80;;;4.75;;
11287;SDS011;5700;50.996;7.044;2023-07-20T07:31:12;9.10;;;5.70;;
11287;SDS011;5700;50.996;7.044;2023-07-20T07:34:14;10.25;;;4.63;;
11287;SDS011;5700;50.996;7.044;2023-07-20T07:37:17;8.85;;;5.28;;
11287;SDS011;5700;50.996;7.044;2023-07-20T07:40:19;8.32;;;4.20;;
11287;SDS011;5700;50.996;7.044;2023-07-20T07:43:21;9.15;;;5.10;;
11287;SDS011;5700;50.996;7.044;2023-07-20T07:46:22;7.15;;;4.30;;
11287;SDS011;5700;50.996;7.044;2023-07-20T07:49:24;6.60;;;4.55;;
11287;SDS011;5700;50.996;7.044;2023-07-20T07:52:26;11.23;;;5.22;;
11287;SDS011;5700;50.996;7.044;2023-07-20T07:55:28;8.35;;;4.20;;
11287;SDS011;5700;50.996;7.044;2023-07-20T07:58:29;8.48;;;3.95;;
11287;SDS011;5700;50.996;7.044;2023-07-20T08:01:31;5.65;;;3.20;;
11287;SDS011;5700;50.996;7.044;2023-07-20T08:04:32;6.30;;;3.22;;
11287;SDS011;5700;50.996;7.044;2023-07-20T08:07:35;7.88;;;3.33;;
11287;SDS011;5700;50.996;7.044;2023-07-20T08:10:37;8.13;;;2.58;;
11287;SDS011;5700;50.996;7.044;2023-07-20T08:13:38;5.13;;;2.75;;
11287;SDS011;5700;50.996;7.044;2023-07-20T08:16:39;5.60;;;3.20;;
11287;SDS011;5700;50.996;7.044;2023-07-20T08:19:41;3.85;;;2.50;;
11287;SDS011;5700;50.996;7.044;2023-07-20T08:22:44;4.90;;;2.60;;
11287;SDS011;5700;50.996;7.044;2023-07-20T08:25:45;5.35;;;2.38;;
11287;SDS011;5700;50.996;7.044;2023-07-20T08:28:47;5.03;;;2.03;;
11287;SDS011;5700;50.996;7.044;2023-07-20T08:31:48;4.38;;;1.65;;
11287;SDS011;5700;50.996;7.044;2023-07-20T08:34:50;6.15;;;1.80;;
11287;SDS011;5700;50.996;7.044;2023-07-20T08:37:52;4.90;;;2.00;;
11287;SDS011;5700;50.996;7.044;2023-07-20T08:40:54;3.28;;;1.40;;
11287;SDS011;5700;50.996;7.044;2023-07-20T08:43:55;3.50;;;1.90;;
11287;SDS011;5700;50.996;7.044;2023-07-20T08:46:58;3.55;;;1.80;;
11287;SDS011;5700;50.996;7.044;2023-07-20T08:50:00;3.33;;;1.80;;
11287;SDS011;5700;50.996;7.044;2023-07-20T08:53:03;2.50;;;1.40;;
11287;SDS011;5700;50.996;7.044;2023-07-20T08:56:04;4.95;;;1.75;;
11287;SDS011;5700;50.996;7.044;2023-07-20T08:59:07;5.30;;;1.70;;
11287;SDS011;5700;50.996;7.044;2023-07-20T09:02:09;3.38;;;1.75;;
11287;SDS011;5700;50.996;7.044;2023-07-20T09:05:17;4.00;;;1.85;;
11287;SDS011;5700;50.996;7.044;2023-07-20T09:08:20;4.38;;;1.63;;
11287;SDS011;5700;50.996;7.044;2023-07-20T09:11:21;5.03;;;1.90;;
11287;SDS011;5700;50.996;7.044;2023-07-20T09:14:23;3.88;;;1.30;;
11287;SDS011;5700;50.996;7.044;2023-07-20T09:17:25;3.22;;;1.25;;
11287;SDS011;5700;50.996;7.044;2023-07-20T09:20:27;3.45;;;0.93;;
11287;SDS011;5700;50.996;7.044;2023-07-20T09:23:31;4.60;;;1.30;;
11287;SDS011;5700;50.996;7.044;2023-07-20T09:26:35;4.78;;;1.50;;
11287;SDS011;5700;50.996;7.044;2023-07-20T09:29:47;1.98;;;0.93;;
11287;SDS011;5700;50.996;7.044;2023-07-20T09:32:49;2.65;;;1.20;;
11287;SDS011;5700;50.996;7.044;2023-07-20T09:35:51;2.20;;;0.93;;
11287;SDS011;5700;50.996;7.044;2023-07-20T09:38:54;4.47;;;1.13;;
11287;SDS011;5700;50.996;7.044;2023-07-20T09:41:56;2.38;;;1.00;;
11287;SDS011;5700;50.996;7.044;2023-07-20T09:45:01;1.70;;;0.63;;
11287;SDS011;5700;50.996;7.044;2023-07-20T09:48:03;3.20;;;0.98;;
11287;SDS011;5700;50.996;7.044;2023-07-20T09:51:06;1.10;;;0.68;;
11287;SDS011;5700;50.996;7.044;2023-07-20T09:54:09;2.00;;;0.52;;
11287;SDS011;5700;50.996;7.044;2023-07-20T09:57:11;4.57;;;0.75;;
11287;SDS011;5700;50.996;7.044;2023-07-20T10:00:14;1.88;;;0.85;;
11287;SDS011;5700;50.996;7.044;2023-07-20T10:03:18;1.98;;;1.00;;
11287;SDS011;5700;50.996;7.044;2023-07-20T10:06:20;1.98;;;0.80;;
11287;SDS011;5700;50.996;7.044;2023-07-20T10:09:25;2.80;;;1.13;;
11287;SDS011;5700;50.996;7.044;2023-07-20T10:12:27;2.03;;;1.02;;
11287;SDS011;5700;50.996;7.044;2023-07-20T10:15:29;1.80;;;0.80;;
11287;SDS011;5700;50.996;7.044;2023-07-20T10:18:38;1.75;;;0.98;;
11287;SDS011;5700;50.996;7.044;2023-07-20T10:21:46;1.73;;;1.00;;
11287;SDS011;5700;50.996;7.044;2023-07-20T10:24:50;1.40;;;1.10;;
11287;SDS011;5700;50.996;7.044;2023-07-20T10:27:54;1.40;;;0.82;;
11287;SDS011;5700;50.996;7.044;2023-07-20T10:30:56;1.63;;;0.80;;
11287;SDS011;5700;50.996;7.044;2023-07-20T10:33:57;1.10;;;0.70;;
11287;SDS011;5700;50.996;7.044;2023-07-20T10:36:59;1.85;;;0.77;;
11287;SDS011;5700;50.996;7.044;2023-07-20T10:43:33;2.40;;;0.75;;
11287;SDS011;5700;50.996;7.044;2023-07-20T10:46:45;1.02;;;0.75;;
11287;SDS011;5700;50.996;7.044;2023-07-20T10:53:09;2.25;;;0.70;;
11287;SDS011;5700;50.996;7.044;2023-07-20T10:56:11;1.08;;;0.70;;
11287;SDS011;5700;50.996;7.044;2023-07-20T10:59:18;2.80;;;1.02;;
11287;SDS011;5700;50.996;7.044;2023-07-20T11:02:20;1.58;;;0.70;;
11287;SDS011;5700;50.996;7.044;2023-07-20T11:05:31;2.50;;;0.80;;
11287;SDS011;5700;50.996;7.044;2023-07-20T11:08:38;2.67;;;0.80;;
11287;SDS011;5700;50.996;7.044;2023-07-20T11:11:41;1.15;;;0.85;;
11287;SDS011;5700;50.996;7.044;2023-07-20T11:14:52;1.48;;;0.80;;
11287;SDS011;5700;50.996;7.044;2023-07-20T11:18:10;1.15;;;0.70;;
11287;SDS011;5700;50.996;7.044;2023-07-20T11:21:12;1.40;;;0.77;;
11287;SDS011;5700;50.996;7.044;2023-07-20T11:24:14;2.95;;;0.75;;
11287;SDS011;5700;50.996;7.044;2023-07-20T11:27:15;1.67;;;0.90;;
11287;SDS011;5700;50.996;7.044;2023-07-20T11:30:20;0.80;;;0.52;;
11287;SDS011;5700;50.996;7.044;2023-07-20T11:33:21;2.58;;;0.70;;
11287;SDS011;5700;50.996;7.044;2023-07-20T11:36:22;1.67;;;0.63;;
11287;SDS011;5700;50.996;7.044;2023-07-20T11:39:24;0.43;;;0.38;;
11287;SDS011;5700;50.996;7.044;2023-07-20T11:42:26;0.90;;;0.70;;
11287;SDS011;5700;50.996;7.044;2023-07-20T11:45:29;2.33;;;0.98;;
11287;SDS011;5700;50.996;7.044;2023-07-20T11:48:32;1.58;;;0.73;;
11287;SDS011;5700;50.996;7.044;2023-07-20T11:51:34;1.10;;;0.50;;
11287;SDS011;5700;50.996;7.044;2023-07-20T11:54:36;1.70;;;0.73;;
11287;SDS011;5700;50.996;7.044;2023-07-20T11:57:39;0.60;;;0.52;;
11287;SDS011;5700;50.996;7.044;2023-07-20T12:00:42;1.65;;;1.02;;
11287;SDS011;5700;50.996;7.044;2023-07-20T12:03:45;1.58;;;0.60;;
11287;SDS011;5700;50.996;7.044;2023-07-20T12:06:46;0.85;;;0.40;;
11287;SDS011;5700;50.996;7.044;2023-07-20T12:10:02;1.02;;;0.60;;
11287;SDS011;5700;50.996;7.044;2023-07-20T12:13:04;0.63;;;0.40;;
11287;SDS011;5700;50.996;7.044;2023-07-20T12:16:10;0.98;;;0.60;;
11287;SDS011;5700;50.996;7.044;2023-07-20T12:19:12;0.93;;;0.63;;
11287;SDS011;5700;50.996;7.044;2023-07-20T12:22:14;2.15;;;0.70;;
11287;SDS011;5700;50.996;7.044;2023-07-20T12:25:15;1.00;;;0.63;;
11287;SDS011;5700;50.996;7.044;2023-07-20T12:28:20;1.20;;;0.60;;
11287;SDS011;5700;50.996;7.044;2023-07-20T12:31:23;0.90;;;0.52;;
11287;SDS011;5700;50.996;7.044;2023-07-20T12:34:25;0.85;;;0.55;;
11287;SDS011;5700;50.996;7.044;2023-07-20T12:37:27;1.02;;;0.50;;
11287;SDS011;5700;50.996;7.044;2023-07-20T12:40:28;1.25;;;0.70;;
11287;SDS011;5700;50.996;7.044;2023-07-20T12:43:30;1.30;;;0.70;;
11287;SDS011;5700;50.996;7.044;2023-07-20T12:46:33;0.57;;;0.50;;
11287;SDS011;5700;50.996;7.044;2023-07-20T12:49:37;1.83;;;0.57;;
11287;SDS011;5700;50.996;7.044;2023-07-20T12:52:39;1.42;;;0.77;;
11287;SDS011;5700;50.996;7.044;2023-07-20T12:55:41;1.00;;;0.68;;
11287;SDS011;5700;50.996;7.044;2023-07-20T12:58:43;2.30;;;0.60;;
11287;SDS011;5700;50.996;7.044;2023-07-20T13:01:45;1.70;;;0.60;;
11287;SDS011;5700;50.996;7.044;2023-07-20T13:04:47;0.88;;;0.52;;
11287;SDS011;5700;50.996;7.044;2023-07-20T13:07:48;0.73;;;0.50;;
11287;SDS011;5700;50.996;7.044;2023-07-20T13:10:50;1.30;;;0.40;;
11287;SDS011;5700;50.996;7.044;2023-07-20T13:13:51;0.82;;;0.55;;
11287;SDS011;5700;50.996;7.044;2023-07-20T13:16:55;1.00;;;0.63;;
11287;SDS011;5700;50.996;7.044;2023-07-20T13:19:56;0.93;;;0.63;;
11287;SDS011;5700;50.996;7.044;2023-07-20T13:22:57;2.45;;;0.80;;
11287;SDS011;5700;50.996;7.044;2023-07-20T13:25:59;0.95;;;0.50;;
11287;SDS011;5700;50.996;7.044;2023-07-20T13:29:00;1.85;;;0.70;;
11287;SDS011;5700;50.996;7.044;2023-07-20T13:32:04;0.60;;;0.50;;
11287;SDS011;5700;50.996;7.044;2023-07-20T13:35:06;1.35;;;0.57;;
11287;SDS011;5700;50.996;7.044;2023-07-20T13:38:08;1.23;;;0.75;;
11287;SDS011;5700;50.996;7.044;2023-07-20T13:41:09;3.35;;;0.80;;
11287;SDS011;5700;50.996;7.044;2023-07-20T13:44:11;1.10;;;0.70;;
11287;SDS011;5700;50.996;7.044;2023-07-20T13:47:13;2.40;;;0.63;;
11287;SDS011;5700;50.996;7.044;2023-07-20T13:50:15;1.00;;;0.63;;
11287;SDS011;5700;50.996;7.044;2023-07-20T13:53:16;0.70;;;0.60;;
11287;SDS011;5700;50.996;7.044;2023-07-20T13:56:17;1.10;;;0.65;;
11287;SDS011;5700;50.996;7.044;2023-07-20T13:59:19;2.53;;;0.60;;
11287;SDS011;5700;50.996;7.044;2023-07-20T14:02:22;1.65;;;0.57;;
11287;SDS011;5700;50.996;7.044;2023-07-20T14:05:23;0.93;;;0.70;;
11287;SDS011;5700;50.996;7.044;2023-07-20T14:08:24;1.63;;;0.70;;
11287;SDS011;5700;50.996;7.044;2023-07-20T14:11:26;2.97;;;0.80;;
11287;SDS011;5700;50.996;7.044;2023-07-20T14:14:27;1.95;;;0.65;;
11287;SDS011;5700;50.996;7.044;2023-07-20T14:17:30;0.95;;;0.68;;
11287;SDS011;5700;50.996;7.044;2023-07-20T14:20:32;1.33;;;0.70;;
11287;SDS011;5700;50.996;7.044;2023-07-20T14:23:33;0.88;;;0.70;;
11287;SDS011;5700;50.996;7.044;2023-07-20T14:26:36;1.95;;;0.43;;
11287;SDS011;5700;50.996;7.044;2023-07-20T14:29:37;0.90;;;0.80;;
11287;SDS011;5700;50.996;7.044;2023-07-20T14:32:40;2.47;;;0.73;;
11287;SDS011;5700;50.996;7.044;2023-07-20T14:35:42;0.60;;;0.45;;
11287;SDS011;5700;50.996;7.044;2023-07-20T14:38:43;2.00;;;0.80;;
11287;SDS011;5700;50.996;7.044;2023-07-20T14:41:44;1.40;;;0.50;;
11287;SDS011;5700;50.996;7.044;2023-07-20T14:44:46;2.33;;;0.50;;
11287;SDS011;5700;50.996;7.044;2023-07-20T14:47:49;2.35;;;0.77;;
11287;SDS011;5700;50.996;7.044;2023-07-20T14:50:54;0.98;;;0.70;;
11287;SDS011;5700;50.996;7.044;2023-07-20T14:53:55;1.63;;;0.63;;
11287;SDS011;5700;50.996;7.044;2023-07-20T14:56:57;1.13;;;0.85;;
11287;SDS011;5700;50.996;7.044;2023-07-20T14:59:58;1.77;;;0.52;;
11287;SDS011;5700;50.996;7.044;2023-07-20T15:03:01;0.80;;;0.63;;
11287;SDS011;5700;50.996;7.044;2023-07-20T15:06:02;1.73;;;0.82;;
11287;SDS011;5700;50.996;7.044;2023-07-20T15:09:04;2.75;;;0.90;;
11287;SDS011;5700;50.996;7.044;2023-07-20T15:12:06;1.30;;;0.70;;
11287;SDS011;5700;50.996;7.044;2023-07-20T15:15:08;1.75;;;0.80;;
11287;SDS011;5700;50.996;7.044;2023-07-20T15:18:12;1.75;;;0.80;;
11287;SDS011;5700;50.996;7.044;2023-07-20T15:21:13;1.15;;;0.77;;
11287;SDS011;5700;50.996;7.044;2023-07-20T15:24:15;2.08;;;0.98;;
11287;SDS011;5700;50.996;7.044;2023-07-20T15:27:16;1.00;;;0.70;;
11287;SDS011;5700;50.996;7.044;2023-07-20T15:30:18;0.55;;;0.50;;
11287;SDS011;5700;50.996;7.044;2023-07-20T15:33:21;0.90;;;0.60;;
11287;SDS011;5700;50.996;7.044;2023-07-20T15:36:22;1.70;;;0.73;;
11287;SDS011;5700;50.996;7.044;2023-07-20T15:39:23;1.10;;;0.60;;
11287;SDS011;5700;50.996;7.044;2023-07-20T15:42:27;0.98;;;0.40;;
11287;SDS011;5700;50.996;7.044;2023-07-20T15:45:28;1.70;;;0.50;;
11287;SDS011;5700;50.996;7.044;2023-07-20T15:48:31;1.58;;;0.55;;
11287;SDS011;5700;50.996;7.044;2023-07-20T15:51:33;1.50;;;0.68;;
11287;SDS011;5700;50.996;7.044;2023-07-20T15:54:36;1.45;;;0.55;;
11287;SDS011;5700;50.996;7.044;2023-07-20T15:57:38;1.77;;;0.77;;
11287;SDS011;5700;50.996;7.044;2023-07-20T16:00:39;0.85;;;0.50;;
11287;SDS011;5700;50.996;7.044;2023-07-20T16:03:54;1.52;;;0.60;;
11287;SDS011;5700;50.996;7.044;2023-07-20T16:06:56;0.88;;;0.50;;
11287;SDS011;5700;50.996;7.044;2023-07-20T16:09:57;2.30;;;0.60;;
11287;SDS011;5700;50.996;7.044;2023-07-20T16:13:01;1.27;;;0.57;;
11287;SDS011;5700;50.996;7.044;2023-07-20T16:16:02;0.60;;;0.50;;
11287;SDS011;5700;50.996;7.044;2023-07-20T16:19:05;1.48;;;0.70;;
11287;SDS011;5700;50.996;7.044;2023-07-20T16:22:07;1.52;;;0.50;;
11287;SDS011;5700;50.996;7.044;2023-07-20T16:25:11;2.33;;;0.70;;
11287;SDS011;5700;50.996;7.044;2023-07-20T16:28:13;0.68;;;0.40;;
11287;SDS011;5700;50.996;7.044;2023-07-20T16:31:15;1.48;;;0.55;;
11287;SDS011;5700;50.996;7.044;2023-07-20T16:34:18;2.75;;;0.93;;
11287;SDS011;5700;50.996;7.044;2023-07-20T16:37:19;1.25;;;0.73;;
11287;SDS011;5700;50.996;7.044;2023-07-20T16:40:21;2.08;;;0.70;;
11287;SDS011;5700;50.996;7.044;2023-07-20T16:43:24;0.82;;;0.70;;
11287;SDS011;5700;50.996;7.044;2023-07-20T16:46:25;1.73;;;0.82;;
11287;SDS011;5700;50.996;7.044;2023-07-20T16:49:28;1.52;;;0.80;;
11287;SDS011;5700;50.996;7.044;2023-07-20T16:52:30;1.45;;;0.60;;
11287;SDS011;5700;50.996;7.044;2023-07-20T16:55:32;3.13;;;0.80;;
11287;SDS011;5700;50.996;7.044;2023-07-20T16:58:33;0.70;;;0.52;;
11287;SDS011;5700;50.996;7.044;2023-07-20T17:01:35;0.98;;;0.57;;
11287;SDS011;5700;50.996;7.044;2023-07-20T17:04:37;1.23;;;0.70;;
11287;SDS011;5700;50.996;7.044;2023-07-20T17:07:39;1.35;;;0.77;;
11287;SDS011;5700;50.996;7.044;2023-07-20T17:10:40;0.68;;;0.57;;
11287;SDS011;5700;50.996;7.044;2023-07-20T17:13:42;2.25;;;0.60;;
11287;SDS011;5700;50.996;7.044;2023-07-20T17:16:44;1.08;;;0.70;;
11287;SDS011;5700;50.996;7.044;2023-07-20T17:19:47;0.70;;;0.50;;
11287;SDS011;5700;50.996;7.044;2023-07-20T17:22:48;0.95;;;0.55;;
11287;SDS011;5700;50.996;7.044;2023-07-20T17:25:50;0.80;;;0.70;;
11287;SDS011;5700;50.996;7.044;2023-07-20T17:28:51;0.88;;;0.43;;
11287;SDS011;5700;50.996;7.044;2023-07-20T17:31:53;2.08;;;0.75;;
11287;SDS011;5700;50.996;7.044;2023-07-20T17:34:55;3.10;;;0.55;;
11287;SDS011;5700;50.996;7.044;2023-07-20T17:37:57;1.23;;;0.60;;
11287;SDS011;5700;50.996;7.044;2023-07-20T17:40:59;0.80;;;0.60;;
11287;SDS011;5700;50.996;7.044;2023-07-20T17:44:01;0.52;;;0.40;;
11287;SDS011;5700;50.996;7.044;2023-07-20T17:47:03;2.05;;;0.57;;
11287;SDS011;5700;50.996;7.044;2023-07-20T17:50:06;1.77;;;0.70;;
11287;SDS011;5700;50.996;7.044;2023-07-20T17:53:10;1.33;;;0.50;;
11287;SDS011;5700;50.996;7.044;2023-07-20T17:56:12;2.83;;;0.70;;
11287;SDS011;5700;50.996;7.044;2023-07-20T17:59:13;0.82;;;0.65;;
11287;SDS011;5700;50.996;7.044;2023-07-20T18:02:15;0.82;;;0.65;;
11287;SDS011;5700;50.996;7.044;2023-07-20T18:05:18;1.27;;;0.82;;
11287;SDS011;5700;50.996;7.044;2023-07-20T18:08:19;0.85;;;0.60;;
11287;SDS011;5700;50.996;7.044;2023-07-20T18:11:21;2.80;;;0.70;;
11287;SDS011;5700;50.996;7.044;2023-07-20T18:14:22;5.90;;;0.80;;
11287;SDS011;5700;50.996;7.044;2023-07-20T18:17:24;1.05;;;0.60;;
11287;SDS011;5700;50.996;7.044;2023-07-20T18:20:26;2.22;;;0.70;;
11287;SDS011;5700;50.996;7.044;2023-07-20T18:23:28;1.55;;;0.60;;
11287;SDS011;5700;50.996;7.044;2023-07-20T18:26:29;1.65;;;0.40;;
11287;SDS011;5700;50.996;7.044;2023-07-20T18:29:31;0.63;;;0.52;;
11287;SDS011;5700;50.996;7.044;2023-07-20T18:32:32;1.00;;;0.60;;
11287;SDS011;5700;50.996;7.044;2023-07-20T18:35:35;1.75;;;0.63;;
11287;SDS011;5700;50.996;7.044;2023-07-20T18:38:37;2.75;;;0.77;;
11287;SDS011;5700;50.996;7.044;2023-07-20T18:41:38;4.68;;;0.50;;